createdAt,value
2018-12-28T00:01:12.514Z,0.90
2018-12-28T00:03:38.910Z,1.00
2018-12-28T00:06:05.370Z,0.90
2018-12-28T00:08:31.849Z,0.90
2018-12-28T00:10:58.499Z,0.90
2018-12-28T00:13:24.973Z,0.90
2018-12-28T00:15:51.673Z,0.90
2018-12-28T00:18:18.324Z,0.80
2018-12-28T00:20:44.793Z,0.80
2018-12-28T00:23:11.302Z,0.80
2018-12-28T00:25:37.771Z,0.80
2018-12-28T00:28:04.259Z,0.80
2018-12-28T00:30:30.748Z,0.80
2018-12-28T00:32:57.239Z,0.80
2018-12-28T00:35:23.767Z,0.80
2018-12-28T00:37:50.097Z,0.80
2018-12-28T00:40:16.616Z,0.80
2018-12-28T00:42:43.115Z,0.80
2018-12-28T00:45:09.602Z,0.80
2018-12-28T00:47:35.994Z,0.80
2018-12-28T00:50:02.807Z,0.80
2018-12-28T00:52:29.294Z,0.70
2018-12-28T00:54:55.689Z,0.80
2018-12-28T00:57:21.987Z,0.70
2018-12-28T00:59:48.361Z,0.70
2018-12-28T01:02:14.896Z,0.70
2018-12-28T01:04:41.275Z,0.70
2018-12-28T01:07:07.857Z,0.70
2018-12-28T01:09:34.282Z,0.70
2018-12-28T01:12:00.884Z,0.70
2018-12-28T01:14:27.275Z,0.70
2018-12-28T01:16:53.762Z,0.70
2018-12-28T01:19:20.160Z,0.70
2018-12-28T01:21:46.638Z,0.70
2018-12-28T01:24:13.183Z,0.70
2018-12-28T01:26:39.606Z,0.70
2018-12-28T01:29:06.118Z,0.70
2018-12-28T01:31:32.501Z,0.70
2018-12-28T01:33:59.890Z,0.70
2018-12-28T01:36:26.273Z,0.60
2018-12-28T01:38:52.763Z,0.60
2018-12-28T01:41:19.251Z,0.60
2018-12-28T01:43:45.786Z,0.60
2018-12-28T01:46:12.290Z,0.60
2018-12-28T01:48:38.825Z,0.60
2018-12-28T01:51:05.420Z,0.60
2018-12-28T01:53:31.906Z,0.60
2018-12-28T01:55:58.504Z,0.60
2018-12-28T01:58:24.978Z,0.60
2018-12-28T02:00:51.599Z,0.60
2018-12-28T02:03:18.139Z,0.60
2018-12-28T02:05:44.635Z,0.60
2018-12-28T02:08:11.050Z,0.60
2018-12-28T02:10:37.642Z,0.60
2018-12-28T02:13:04.268Z,0.60
2018-12-28T02:15:30.788Z,0.60
2018-12-28T02:17:57.283Z,0.60
2018-12-28T02:20:23.779Z,0.60
2018-12-28T02:22:50.226Z,0.60
2018-12-28T02:25:16.826Z,0.60
2018-12-28T02:27:43.325Z,0.60
2018-12-28T02:30:13.525Z,0.50
2018-12-28T02:32:39.910Z,0.60
2018-12-28T02:35:06.553Z,0.60
2018-12-28T02:37:33.032Z,0.50
2018-12-28T02:39:59.523Z,0.50
2018-12-28T02:42:25.990Z,0.60
2018-12-28T02:44:52.393Z,0.60
2018-12-28T02:47:18.907Z,0.60
2018-12-28T02:49:45.310Z,0.60
2018-12-28T02:52:11.800Z,0.50
2018-12-28T02:54:38.344Z,0.60
2018-12-28T02:57:04.951Z,0.60
2018-12-28T02:59:31.458Z,0.60
2018-12-28T03:01:58.023Z,0.60
2018-12-28T03:04:24.417Z,0.60
2018-12-28T03:06:51.163Z,0.60
2018-12-28T03:09:17.510Z,0.60
2018-12-28T03:11:44.044Z,0.60
2018-12-28T03:14:10.506Z,0.60
2018-12-28T03:16:37.016Z,0.60
2018-12-28T03:19:03.497Z,0.60
2018-12-28T03:21:29.883Z,0.60
2018-12-28T03:23:56.355Z,0.60
2018-12-28T03:26:22.874Z,0.60
2018-12-28T03:28:49.387Z,0.60
2018-12-28T03:31:16.008Z,0.60
2018-12-28T03:33:42.511Z,0.60
2018-12-28T03:36:09.386Z,0.60
2018-12-28T03:38:35.977Z,0.60
2018-12-28T03:41:02.570Z,0.60
2018-12-28T03:43:29.155Z,0.70
2018-12-28T03:45:55.962Z,0.70
2018-12-28T03:48:22.350Z,0.70
2018-12-28T03:50:48.923Z,0.70
2018-12-28T03:53:15.373Z,0.70
2018-12-28T03:55:41.858Z,0.70
2018-12-28T03:58:08.349Z,0.70
2018-12-28T04:00:34.861Z,0.70
2018-12-28T04:03:01.347Z,0.70
2018-12-28T04:05:27.951Z,0.80
2018-12-28T04:07:54.411Z,0.80
2018-12-28T04:10:20.900Z,0.80
2018-12-28T04:12:47.502Z,0.80
2018-12-28T04:15:14.011Z,0.80
2018-12-28T04:17:40.413Z,0.80
2018-12-28T04:20:06.884Z,0.80
2018-12-28T04:22:33.510Z,0.80
2018-12-28T04:25:00.858Z,0.80
2018-12-28T04:27:27.505Z,0.80
2018-12-28T04:29:54.012Z,0.80
2018-12-28T04:32:20.504Z,0.80
2018-12-28T04:34:46.947Z,0.80
2018-12-28T04:37:13.430Z,0.80
2018-12-28T04:39:39.825Z,0.80
2018-12-28T04:42:06.204Z,0.90
2018-12-28T04:44:32.800Z,0.80
2018-12-28T04:46:59.275Z,0.90
2018-12-28T04:49:25.751Z,0.90
2018-12-28T04:51:52.775Z,0.90
2018-12-28T04:54:22.910Z,0.90
2018-12-28T04:56:49.797Z,0.90
2018-12-28T04:59:16.832Z,0.90
2018-12-28T05:01:46.888Z,0.90
2018-12-28T05:04:16.967Z,0.90
2018-12-28T05:06:49.803Z,0.90
2018-12-28T05:09:42.705Z,0.90
2018-12-28T05:12:33.591Z,0.90
2018-12-28T05:15:25.978Z,0.90
2018-12-28T05:18:16.584Z,0.90
2018-12-28T05:20:58.817Z,0.90
2018-12-28T05:23:49.727Z,1.00
2018-12-28T05:26:19.795Z,0.90
2018-12-28T05:28:52.880Z,1.00
2018-12-28T05:31:22.930Z,1.00
2018-12-28T05:33:49.471Z,1.00
2018-12-28T05:36:15.949Z,1.00
2018-12-28T05:38:42.443Z,1.10
2018-12-28T05:41:09.295Z,1.00
2018-12-28T05:43:35.890Z,1.10
2018-12-28T05:46:02.460Z,1.10
2018-12-28T05:48:28.977Z,1.10
2018-12-28T05:50:55.540Z,1.10
2018-12-28T05:53:22.154Z,1.10
2018-12-28T05:55:48.527Z,1.10
2018-12-28T05:58:15.007Z,1.10
2018-12-28T06:00:41.616Z,1.10
2018-12-28T06:03:08.203Z,1.10
2018-12-28T06:05:34.678Z,1.10
2018-12-28T06:08:01.164Z,1.10
2018-12-28T06:10:32.812Z,1.10
2018-12-28T06:12:56.018Z,1.00
2018-12-28T06:15:22.500Z,1.00
2018-12-28T06:17:49.188Z,1.00
2018-12-28T06:20:15.672Z,1.00
2018-12-28T06:22:42.184Z,1.00
2018-12-28T06:25:08.704Z,1.00
2018-12-28T06:27:35.166Z,1.00
2018-12-28T06:30:01.795Z,0.90
2018-12-28T06:32:28.246Z,0.90
2018-12-28T06:34:54.755Z,0.90
2018-12-28T06:37:21.322Z,0.80
2018-12-28T06:39:47.815Z,0.90
2018-12-28T06:42:14.295Z,0.80
2018-12-28T06:44:40.774Z,0.80
2018-12-28T06:47:07.264Z,0.80
2018-12-28T06:49:33.665Z,0.80
2018-12-28T06:52:00.163Z,0.80
2018-12-28T06:54:35.792Z,0.80
2018-12-28T06:57:23.500Z,0.80
2018-12-28T07:00:28.484Z,0.80
2018-12-28T07:03:10.778Z,0.80
2018-12-28T07:06:16.068Z,0.80
2018-12-28T07:08:58.282Z,0.80
2018-12-28T07:11:37.886Z,0.80
2018-12-28T07:14:31.042Z,0.80
2018-12-28T07:17:04.050Z,0.80
2018-12-28T07:19:37.167Z,0.80
2018-12-28T07:22:19.676Z,0.80
2018-12-28T07:24:55.675Z,0.80
2018-12-28T07:27:42.386Z,0.70
2018-12-28T07:30:24.771Z,0.80
2018-12-28T07:33:16.130Z,0.70
2018-12-28T07:36:19.931Z,0.70
2018-12-28T07:39:13.804Z,0.70
2018-12-28T07:41:59.074Z,0.70
2018-12-28T07:44:38.146Z,0.70
2018-12-28T07:47:23.323Z,0.70
2018-12-28T07:50:07.974Z,0.60
2018-12-28T07:53:01.054Z,0.70
2018-12-28T07:55:49.469Z,0.60
2018-12-28T07:58:19.678Z,0.60
2018-12-28T08:01:04.587Z,0.70
2018-12-28T08:03:46.722Z,0.60
2018-12-28T08:06:19.749Z,0.60
2018-12-28T08:09:06.567Z,0.60
2018-12-28T08:11:39.468Z,0.60
2018-12-28T08:14:14.785Z,0.60
2018-12-28T08:16:54.128Z,0.60
2018-12-28T08:19:32.947Z,0.70
2018-12-28T08:22:05.756Z,0.70
2018-12-28T08:24:45.238Z,0.80
2018-12-28T08:27:18.320Z,0.70
2018-12-28T08:30:19.342Z,0.70
2018-12-28T08:33:06.528Z,0.80
2018-12-28T08:35:39.625Z,0.80
2018-12-28T08:38:24.888Z,0.80
2018-12-28T08:41:13.122Z,0.80
2018-12-28T08:43:54.982Z,0.90
2018-12-28T08:46:33.556Z,0.90
2018-12-28T08:49:12.649Z,0.90
2018-12-28T08:52:02.663Z,0.90
2018-12-28T08:54:35.854Z,0.80
2018-12-28T08:57:40.489Z,0.90
2018-12-28T09:00:30.235Z,0.80
2018-12-28T09:03:00.402Z,0.90
2018-12-28T09:05:33.133Z,0.90
2018-12-28T09:08:26.145Z,0.90
2018-12-28T09:11:08.257Z,1.00
2018-12-28T09:13:53.530Z,0.90
2018-12-28T09:16:26.858Z,0.90
2018-12-28T09:18:56.953Z,1.00
2018-12-28T09:21:36.351Z,1.00
2018-12-28T09:24:06.591Z,1.00
2018-12-28T09:26:53.478Z,1.00
2018-12-28T09:29:29.907Z,1.00
2018-12-28T09:32:22.709Z,1.00
2018-12-28T09:35:10.863Z,1.00
2018-12-28T09:37:50.295Z,1.00
2018-12-28T09:40:38.538Z,1.10
2018-12-28T09:43:33.198Z,1.20
2018-12-28T09:46:03.300Z,1.40
2018-12-28T09:48:29.792Z,1.50
2018-12-28T09:51:23.905Z,1.60
2018-12-28T09:53:54.370Z,1.60
2018-12-28T09:56:48.874Z,1.60
2018-12-28T09:59:36.962Z,1.60
2018-12-28T10:02:14.705Z,1.70
2018-12-28T10:05:03.809Z,1.80
2018-12-28T10:07:58.816Z,1.80
2018-12-28T10:10:58.069Z,1.90
2018-12-28T10:13:28.294Z,2.00
2018-12-28T10:15:55.652Z,2.00
2018-12-28T10:18:22.207Z,2.00
2018-12-28T10:20:48.918Z,2.10
2018-12-28T10:23:15.434Z,2.10
2018-12-28T10:25:41.902Z,2.10
2018-12-28T10:28:08.366Z,2.10
2018-12-28T10:30:34.759Z,2.10
2018-12-28T10:33:01.152Z,2.10
2018-12-28T10:35:30.240Z,2.10
2018-12-28T10:37:56.772Z,2.00
2018-12-28T10:40:23.751Z,2.00
2018-12-28T10:42:50.488Z,2.00
2018-12-28T10:45:16.791Z,2.10
2018-12-28T10:47:43.266Z,2.20
2018-12-28T10:50:09.671Z,2.30
2018-12-28T10:52:36.341Z,2.30
2018-12-28T10:55:02.787Z,2.30
2018-12-28T10:57:29.308Z,2.30
2018-12-28T10:59:55.758Z,2.30
2018-12-28T11:02:22.122Z,2.30
2018-12-28T11:04:48.673Z,2.40
2018-12-28T11:07:15.055Z,2.30
2018-12-28T11:09:41.771Z,2.40
2018-12-28T11:12:08.525Z,2.30
2018-12-28T11:14:35.126Z,2.30
2018-12-28T11:17:02.073Z,2.30
2018-12-28T11:19:28.554Z,2.30
2018-12-28T11:21:54.947Z,2.30
2018-12-28T11:24:23.961Z,2.30
2018-12-28T11:26:54.346Z,2.30
2018-12-28T11:29:20.860Z,2.20
2018-12-28T11:31:52.604Z,2.30
2018-12-28T11:34:19.269Z,2.20
2018-12-28T11:36:45.825Z,2.20
2018-12-28T11:39:12.226Z,2.20
2018-12-28T11:41:38.650Z,2.20
2018-12-28T11:44:05.216Z,2.20
2018-12-28T11:46:31.693Z,2.20
2018-12-28T11:48:58.066Z,2.20
2018-12-28T11:51:24.465Z,2.20
2018-12-28T11:53:51.172Z,2.20
2018-12-28T11:56:17.577Z,2.20
2018-12-28T11:58:43.965Z,2.30
2018-12-28T12:01:10.623Z,2.30
2018-12-28T12:03:37.056Z,2.20
2018-12-28T12:06:03.591Z,2.30
2018-12-28T12:08:30.070Z,2.40
2018-12-28T12:11:01.818Z,2.30
2018-12-28T12:13:28.430Z,2.40
2018-12-28T12:15:55.339Z,2.40
2018-12-28T12:18:24.575Z,2.40
2018-12-28T12:20:51.042Z,2.40
2018-12-28T12:23:17.554Z,2.30
2018-12-28T12:25:43.876Z,2.30
2018-12-28T12:28:10.501Z,2.30
2018-12-28T12:30:37.102Z,2.30
2018-12-28T12:33:03.623Z,2.30
2018-12-28T12:35:30.122Z,2.30
2018-12-28T12:37:56.563Z,2.30
2018-12-28T12:40:23.034Z,2.40
2018-12-28T12:42:49.633Z,2.40
2018-12-28T12:45:16.088Z,2.30
2018-12-28T12:47:42.650Z,2.30
2018-12-28T12:50:09.147Z,2.30
2018-12-28T12:52:35.563Z,2.30
2018-12-28T12:55:02.300Z,2.20
2018-12-28T12:57:29.391Z,2.20
2018-12-28T12:59:56.131Z,2.10
2018-12-28T13:02:22.619Z,2.10
2018-12-28T13:04:49.187Z,2.10
2018-12-28T13:07:15.576Z,2.10
2018-12-28T13:09:42.152Z,2.10
2018-12-28T13:12:14.570Z,2.10
2018-12-28T13:14:37.171Z,2.10
2018-12-28T13:17:03.535Z,2.20
2018-12-28T13:19:30.267Z,2.30
2018-12-28T13:21:56.765Z,2.40
2018-12-28T13:24:25.629Z,2.40
2018-12-28T13:26:52.622Z,2.30
2018-12-28T13:29:18.966Z,2.30
2018-12-28T13:31:45.585Z,2.30
2018-12-28T13:34:11.834Z,2.20
2018-12-28T13:36:38.355Z,2.30
2018-12-28T13:39:05.243Z,2.30
2018-12-28T13:41:31.862Z,2.50
2018-12-28T13:43:58.142Z,2.40
2018-12-28T13:46:24.529Z,2.30
2018-12-28T13:48:56.013Z,2.30
2018-12-28T13:51:22.421Z,2.20
2018-12-28T13:53:48.850Z,2.20
2018-12-28T13:56:15.365Z,2.20
2018-12-28T13:58:41.796Z,2.10
2018-12-28T14:01:11.406Z,2.10
2018-12-28T14:03:38.634Z,2.00
2018-12-28T14:06:24.902Z,1.90
2018-12-28T14:09:01.111Z,1.90
2018-12-28T14:11:27.709Z,1.90
2018-12-28T14:13:54.090Z,2.00
2018-12-28T14:16:20.519Z,1.90
2018-12-28T14:18:54.031Z,1.90
2018-12-28T14:21:20.454Z,1.90
2018-12-28T14:23:46.943Z,1.80
2018-12-28T14:26:13.531Z,1.70
2018-12-28T14:28:40.042Z,1.70
2018-12-28T14:31:06.538Z,1.80
2018-12-28T14:33:33.049Z,1.80
2018-12-28T14:35:59.707Z,1.80
2018-12-28T14:38:34.955Z,1.80
2018-12-28T14:41:04.000Z,1.90
2018-12-28T14:43:31.461Z,1.90
2018-12-28T14:46:02.510Z,1.80
2018-12-28T14:48:28.886Z,1.80
2018-12-28T14:50:55.389Z,1.80
2018-12-28T14:53:21.698Z,1.70
2018-12-28T14:55:48.212Z,1.70
2018-12-28T14:58:14.679Z,1.60
2018-12-28T15:00:46.805Z,1.50
2018-12-28T15:03:13.505Z,1.50
2018-12-28T15:05:40.165Z,1.50
2018-12-28T15:08:08.695Z,1.50
2018-12-28T15:10:35.154Z,1.50
2018-12-28T15:13:01.693Z,1.40
2018-12-28T15:15:29.975Z,1.40
2018-12-28T15:17:57.346Z,1.50
2018-12-28T15:20:24.750Z,1.60
2018-12-28T15:22:51.275Z,1.60
2018-12-28T15:25:19.570Z,1.60
2018-12-28T15:27:47.529Z,1.50
2018-12-28T15:30:16.658Z,1.40
2018-12-28T15:32:43.929Z,1.40
2018-12-28T15:35:10.285Z,1.30
2018-12-28T15:37:36.959Z,1.30
2018-12-28T15:40:23.337Z,1.30
2018-12-28T15:42:51.054Z,1.30
2018-12-28T15:45:17.858Z,1.20
2018-12-28T15:47:44.343Z,1.20
2018-12-28T15:50:10.866Z,1.20
2018-12-28T15:52:37.430Z,1.20
2018-12-28T15:55:03.929Z,1.20
2018-12-28T15:57:33.445Z,1.20
2018-12-28T16:00:02.824Z,1.20
2018-12-28T16:02:32.937Z,1.20
2018-12-28T16:04:59.544Z,1.10
2018-12-28T16:07:25.953Z,1.00
2018-12-28T16:09:52.630Z,1.10
2018-12-28T16:12:19.246Z,1.10
2018-12-28T16:14:45.797Z,1.00
2018-12-28T16:17:17.557Z,1.20
2018-12-28T16:19:57.184Z,1.20
2018-12-28T16:22:23.708Z,1.20
2018-12-28T16:24:50.161Z,1.20
2018-12-28T16:27:16.547Z,1.10
2018-12-28T16:29:42.977Z,1.00
2018-12-28T16:32:09.580Z,1.10
2018-12-28T16:34:36.207Z,1.00
2018-12-28T16:37:02.874Z,1.10
2018-12-28T16:39:29.435Z,1.00
2018-12-28T16:41:56.015Z,1.00
2018-12-28T16:44:22.599Z,1.00
2018-12-28T16:46:49.066Z,1.00
2018-12-28T16:49:15.594Z,1.00
2018-12-28T16:51:46.035Z,0.90
2018-12-28T16:54:12.612Z,0.90
2018-12-28T16:56:39.906Z,0.90
2018-12-28T16:59:06.334Z,0.90
2018-12-28T17:01:32.730Z,0.90
2018-12-28T17:03:59.349Z,0.80
2018-12-28T17:06:25.795Z,0.80
2018-12-28T17:08:52.194Z,0.80
2018-12-28T17:11:19.582Z,0.70
2018-12-28T17:13:45.911Z,0.70
2018-12-28T17:16:12.390Z,0.70
2018-12-28T17:18:38.901Z,0.70
2018-12-28T17:21:05.313Z,0.70
2018-12-28T17:23:31.872Z,0.70
2018-12-28T17:25:58.290Z,0.70
2018-12-28T17:28:24.794Z,0.70
2018-12-28T17:30:51.597Z,0.70
2018-12-28T17:33:18.042Z,0.60
2018-12-28T17:35:44.653Z,0.60
2018-12-28T17:38:11.134Z,0.60
2018-12-28T17:40:40.412Z,0.60
2018-12-28T17:43:05.832Z,0.60
2018-12-28T17:45:32.221Z,0.60
2018-12-28T17:47:58.618Z,0.50
2018-12-28T17:50:25.004Z,0.50
2018-12-28T17:52:51.358Z,0.50
2018-12-28T17:55:17.943Z,0.50
2018-12-28T17:57:44.342Z,0.50
2018-12-28T18:00:10.717Z,0.40
2018-12-28T18:02:37.307Z,0.50
2018-12-28T18:05:03.825Z,0.40
2018-12-28T18:07:30.315Z,0.40
2018-12-28T18:09:56.610Z,0.40
2018-12-28T18:12:23.083Z,0.40
2018-12-28T18:14:49.670Z,0.40
2018-12-28T18:17:16.168Z,0.40
2018-12-28T18:19:42.867Z,0.40
2018-12-28T18:22:09.398Z,0.40
2018-12-28T18:24:36.894Z,0.40
2018-12-28T18:27:03.297Z,0.40
2018-12-28T18:29:29.795Z,0.40
2018-12-28T18:31:56.314Z,0.40
2018-12-28T18:34:22.710Z,0.40
2018-12-28T18:36:49.300Z,0.40
2018-12-28T18:39:15.816Z,0.40
2018-12-28T18:41:42.516Z,0.40
2018-12-28T18:44:09.168Z,0.40
2018-12-28T18:46:35.422Z,0.40
2018-12-28T18:49:01.967Z,0.40
2018-12-28T18:51:28.899Z,0.30
2018-12-28T18:53:55.347Z,0.30
2018-12-28T18:56:21.799Z,0.30
2018-12-28T18:58:48.194Z,0.30
2018-12-28T19:01:14.576Z,0.30
2018-12-28T19:03:41.445Z,0.30
2018-12-28T19:06:07.810Z,0.20
2018-12-28T19:08:34.435Z,0.20
2018-12-28T19:11:00.806Z,0.20
2018-12-28T19:13:27.325Z,0.20
2018-12-28T19:15:53.839Z,0.10
2018-12-28T19:18:20.744Z,0.10
2018-12-28T19:20:47.238Z,0.10
2018-12-28T19:23:13.939Z,0.10
2018-12-28T19:25:40.232Z,0.10
2018-12-28T19:28:06.714Z,0.10
2018-12-28T19:30:33.601Z,0.00
2018-12-28T19:33:01.215Z,0.00
2018-12-28T19:35:27.754Z,0.00
2018-12-28T19:37:54.122Z,0.10
2018-12-28T19:40:20.761Z,0.00
2018-12-28T19:42:47.113Z,0.00
2018-12-28T19:45:13.607Z,0.00
2018-12-28T19:47:40.063Z,0.00
2018-12-28T19:50:06.536Z,0.00
2018-12-28T19:52:33.134Z,0.00
2018-12-28T19:54:59.643Z,0.00
2018-12-28T19:57:26.238Z,0.00
2018-12-28T19:59:53.006Z,-0.10
2018-12-28T20:02:19.357Z,-0.10
2018-12-28T20:04:45.746Z,-0.10
2018-12-28T20:07:12.275Z,-0.10
2018-12-28T20:09:38.884Z,-0.10
2018-12-28T20:12:05.351Z,-0.10
2018-12-28T20:14:31.840Z,-0.10
2018-12-28T20:16:58.349Z,-0.10
2018-12-28T20:19:24.719Z,-0.10
2018-12-28T20:21:51.267Z,-0.10
2018-12-28T20:24:17.745Z,-0.10
2018-12-28T20:26:44.146Z,-0.10
2018-12-28T20:29:10.561Z,-0.10
2018-12-28T20:31:37.073Z,-0.10
2018-12-28T20:34:03.565Z,-0.10
2018-12-28T20:36:29.832Z,-0.10
2018-12-28T20:38:56.218Z,-0.20
2018-12-28T20:41:22.484Z,-0.20
2018-12-28T20:43:48.983Z,-0.20
2018-12-28T20:46:15.386Z,-0.20
2018-12-28T20:48:41.981Z,-0.20
2018-12-28T20:51:08.474Z,-0.20
2018-12-28T20:53:34.774Z,-0.20
2018-12-28T20:56:01.146Z,-0.20
2018-12-28T20:58:27.570Z,-0.30
2018-12-28T21:00:54.150Z,-0.30
2018-12-28T21:03:20.950Z,-0.30
2018-12-28T21:05:47.378Z,-0.20
2018-12-28T21:08:13.863Z,-0.30
2018-12-28T21:10:40.362Z,-0.30
2018-12-28T21:13:07.807Z,-0.30
2018-12-28T21:15:34.313Z,-0.20
2018-12-28T21:18:00.774Z,-0.30
2018-12-28T21:20:27.150Z,-0.30
2018-12-28T21:22:53.795Z,-0.30
2018-12-28T21:25:20.445Z,-0.30
2018-12-28T21:27:46.962Z,-0.30
2018-12-28T21:30:13.363Z,-0.30
2018-12-28T21:32:39.918Z,-0.30
2018-12-28T21:35:06.446Z,-0.30
2018-12-28T21:37:32.867Z,-0.30
2018-12-28T21:39:59.469Z,-0.30
2018-12-28T21:42:25.848Z,-0.30
2018-12-28T21:44:52.326Z,-0.30
2018-12-28T21:47:18.851Z,-0.40
2018-12-28T21:49:45.259Z,-0.40
2018-12-28T21:52:11.708Z,-0.40
2018-12-28T21:54:38.089Z,-0.40
2018-12-28T21:57:06.372Z,-0.40
2018-12-28T21:59:32.944Z,-0.40
2018-12-28T22:01:59.472Z,-0.40
2018-12-28T22:04:26.165Z,-0.40
2018-12-28T22:06:52.649Z,-0.50
2018-12-28T22:09:19.178Z,-0.50
2018-12-28T22:11:45.833Z,-0.50
2018-12-28T22:14:12.365Z,-0.50
2018-12-28T22:16:39.028Z,-0.50
2018-12-28T22:19:05.563Z,-0.50
2018-12-28T22:21:32.176Z,-0.50
2018-12-28T22:23:58.671Z,-0.50
2018-12-28T22:26:25.175Z,-0.50
2018-12-28T22:28:51.571Z,-0.60
2018-12-28T22:31:18.040Z,-0.60
2018-12-28T22:33:44.460Z,-0.60
2018-12-28T22:36:10.911Z,-0.60
2018-12-28T22:38:37.503Z,-0.60
2018-12-28T22:41:03.958Z,-0.60
2018-12-28T22:43:30.478Z,-0.60
2018-12-28T22:45:56.864Z,-0.60
2018-12-28T22:48:23.348Z,-0.60
2018-12-28T22:50:49.917Z,-0.60
2018-12-28T22:53:16.210Z,-0.70
2018-12-28T22:55:42.844Z,-0.70
2018-12-28T22:58:09.341Z,-0.70
2018-12-28T23:00:37.770Z,-0.70
2018-12-28T23:03:04.265Z,-0.70
2018-12-28T23:05:30.754Z,-0.70
2018-12-28T23:07:57.085Z,-0.70
2018-12-28T23:10:23.569Z,-0.70
2018-12-28T23:12:50.072Z,-0.70
2018-12-28T23:15:16.631Z,-0.70
2018-12-28T23:17:43.287Z,-0.70
2018-12-28T23:20:09.899Z,-0.70
2018-12-28T23:22:36.495Z,-0.70
2018-12-28T23:25:03.566Z,-0.70
2018-12-28T23:27:30.079Z,-0.70
2018-12-28T23:29:58.420Z,-0.70
2018-12-28T23:32:24.915Z,-0.70
2018-12-28T23:34:51.518Z,-0.70
2018-12-28T23:37:18.066Z,-0.70
2018-12-28T23:39:44.582Z,-0.80
2018-12-28T23:42:11.117Z,-0.70
2018-12-28T23:44:37.624Z,-0.70
2018-12-28T23:47:04.112Z,-0.70
2018-12-28T23:49:30.422Z,-0.70
2018-12-28T23:51:56.724Z,-0.70
2018-12-28T23:54:23.236Z,-0.80
2018-12-28T23:56:49.623Z,-0.70
2018-12-28T23:59:15.999Z,-0.80
